Time;durP1;ratioP1;P1;durP2;ratioP2;P2;SDS_P1;SDS_P2;PMS_P1;PMS_P2;Temp;Humidity;BMP_temperature;BMP_pressure;BME280_temperature;BME280_humidity;BME280_pressure;Samples;Min_cycle;Max_cycle;Signal;HPM_P1;HPM_P2
2021/09/07 00:02:07;;;;;;;3.47;3.17;;;20.10;99.90;;;;;;5073921;28;20579;-71
2021/09/07 00:04:34;;;;;;;3.85;3.55;;;20.10;99.90;;;;;;5076383;28;20244;-70
2021/09/07 00:07:01;;;;;;;3.58;3.28;;;20.10;99.90;;;;;;5078057;28;20718;-70
2021/09/07 00:09:29;;;;;;;3.50;3.13;;;20.10;99.90;;;;;;5077534;28;20571;-70
2021/09/07 00:11:56;;;;;;;3.60;3.30;;;20.10;99.90;;;;;;5080075;28;20718;-70
2021/09/07 00:14:23;;;;;;;3.33;3.03;;;20.00;99.90;;;;;;5072155;28;20282;-70
2021/09/07 00:16:50;;;;;;;3.50;3.20;;;20.00;99.90;;;;;;5074201;28;20253;-70
2021/09/07 00:19:17;;;;;;;5.47;3.30;;;20.00;99.90;;;;;;5078269;28;20270;-70
2021/09/07 00:21:44;;;;;;;3.30;2.90;;;19.90;99.90;;;;;;5082727;28;20225;-70
2021/09/07 00:24:12;;;;;;;3.45;3.15;;;19.90;99.90;;;;;;5082587;28;21493;-70
2021/09/07 00:26:40;;;;;;;4.00;3.20;;;19.80;99.90;;;;;;5079877;28;20864;-70
2021/09/07 00:29:07;;;;;;;4.65;3.40;;;19.80;99.90;;;;;;5078903;28;20694;-70
2021/09/07 00:31:34;;;;;;;3.33;3.03;;;19.80;99.90;;;;;;5076221;28;20229;-70
2021/09/07 00:34:01;;;;;;;4.10;3.08;;;19.80;99.90;;;;;;5071659;28;20225;-69
2021/09/07 00:36:28;;;;;;;3.50;3.17;;;19.80;99.90;;;;;;5081071;28;20217;-70
2021/09/07 00:38:55;;;;;;;4.15;3.55;;;19.80;99.90;;;;;;5077228;28;20952;-70
2021/09/07 00:41:22;;;;;;;3.13;2.92;;;19.70;99.90;;;;;;5072620;28;20236;-70
2021/09/07 00:43:50;;;;;;;3.55;3.22;;;19.70;99.90;;;;;;5079903;28;20222;-70
2021/09/07 00:46:18;;;;;;;3.67;3.38;;;19.60;99.90;;;;;;5079790;28;20227;-71
2021/09/07 00:48:45;;;;;;;3.33;3.03;;;19.60;99.90;;;;;;5078026;28;20209;-71
2021/09/07 00:51:12;;;;;;;3.53;3.22;;;19.50;99.90;;;;;;5074504;28;20615;-70
2021/09/07 00:53:40;;;;;;;3.38;3.08;;;19.50;99.90;;;;;;5079542;28;20225;-70
2021/09/07 00:56:08;;;;;;;3.47;3.17;;;19.40;99.90;;;;;;5078361;28;20279;-71
2021/09/07 00:58:39;;;;;;;3.50;3.20;;;19.50;99.90;;;;;;5080949;28;20631;-71
2021/09/07 01:01:07;;;;;;;3.72;3.42;;;19.50;99.90;;;;;;5079186;28;20238;-70
2021/09/07 01:03:35;;;;;;;5.80;3.03;;;19.50;99.90;;;;;;5078768;28;20267;-70
2021/09/07 01:06:02;;;;;;;3.13;2.92;;;19.40;99.90;;;;;;5079807;28;20283;-71
2021/09/07 01:08:30;;;;;;;3.50;3.20;;;19.40;99.90;;;;;;5076707;28;20582;-71
2021/09/07 01:10:57;;;;;;;3.47;3.17;;;19.40;99.90;;;;;;5084088;28;20233;-70
2021/09/07 01:13:25;;;;;;;3.30;3.10;;;19.40;99.90;;;;;;5080436;28;20226;-70
2021/09/07 01:15:52;;;;;;;3.85;3.45;;;19.40;99.90;;;;;;5079486;28;20719;-71
2021/09/07 01:18:20;;;;;;;3.35;3.05;;;19.40;99.90;;;;;;5074993;28;20283;-72
2021/09/07 01:20:47;;;;;;;3.55;3.25;;;19.40;99.90;;;;;;5072516;28;20213;-73
2021/09/07 01:23:14;;;;;;;3.00;2.78;;;19.40;99.90;;;;;;5078272;28;20547;-71
2021/09/07 01:25:43;;;;;;;3.22;2.95;;;19.40;99.90;;;;;;5079763;28;20209;-71
2021/09/07 01:28:13;;;;;;;3.40;3.10;;;19.30;99.90;;;;;;5075276;28;20238;-70
2021/09/07 01:30:41;;;;;;;3.30;3.05;;;19.30;99.90;;;;;;5074570;28;20240;-71
2021/09/07 01:33:08;;;;;;;4.10;3.80;;;19.20;99.90;;;;;;5067737;28;20278;-70
2021/09/07 01:35:35;;;;;;;3.17;2.97;;;19.20;99.90;;;;;;5076199;28;20209;-72
2021/09/07 01:38:02;;;;;;;3.50;3.20;;;19.20;99.90;;;;;;5071580;28;20279;-71
2021/09/07 01:40:29;;;;;;;3.22;2.92;;;19.10;99.90;;;;;;5076925;28;20240;-70
2021/09/07 01:42:57;;;;;;;3.80;3.50;;;19.10;99.90;;;;;;5071615;28;20335;-70
2021/09/07 01:45:24;;;;;;;4.10;3.70;;;19.10;99.90;;;;;;5079765;28;20639;-70
2021/09/07 01:47:53;;;;;;;3.80;3.50;;;19.00;99.90;;;;;;5076655;28;20291;-70
2021/09/07 01:50:20;;;;;;;4.28;3.35;;;19.00;99.90;;;;;;5080848;28;20706;-70
2021/09/07 01:52:47;;;;;;;4.03;3.63;;;19.00;99.90;;;;;;5071812;28;20213;-71
2021/09/07 01:55:14;;;;;;;3.85;3.55;;;19.00;99.90;;;;;;5090718;28;20280;-73
2021/09/07 01:57:41;;;;;;;3.72;3.33;;;19.00;99.90;;;;;;5081379;28;20338;-70
2021/09/07 02:00:10;;;;;;;4.15;3.85;;;19.00;99.90;;;;;;5076990;28;20214;-70
2021/09/07 02:02:38;;;;;;;3.90;3.60;;;19.00;99.90;;;;;;5077724;28;20669;-71
2021/09/07 02:05:05;;;;;;;3.72;3.22;;;19.00;99.90;;;;;;5078398;28;20218;-71
2021/09/07 02:07:32;;;;;;;3.40;3.10;;;18.90;99.90;;;;;;5079817;28;20271;-69
2021/09/07 02:09:59;;;;;;;3.83;3.53;;;18.90;99.90;;;;;;5078011;28;20279;-70
2021/09/07 02:12:26;;;;;;;3.28;3.00;;;18.90;99.90;;;;;;5079102;28;20221;-70
2021/09/07 02:14:54;;;;;;;3.53;3.22;;;18.90;99.90;;;;;;5073846;28;20275;-70
2021/09/07 02:17:24;;;;;;;3.65;3.35;;;18.90;99.90;;;;;;5074070;28;20226;-71
2021/09/07 02:19:51;;;;;;;3.40;3.10;;;18.90;99.90;;;;;;5077443;28;20217;-71
2021/09/07 02:22:19;;;;;;;3.60;3.30;;;18.90;99.90;;;;;;5078487;28;20274;-71
2021/09/07 02:24:46;;;;;;;3.75;3.45;;;18.90;99.90;;;;;;5070509;28;20209;-70
2021/09/07 02:27:13;;;;;;;3.60;3.30;;;18.80;99.90;;;;;;5065504;28;20224;-71
2021/09/07 02:29:40;;;;;;;4.03;3.70;;;18.80;99.90;;;;;;5078312;28;20714;-71
2021/09/07 02:32:08;;;;;;;3.78;3.47;;;18.70;99.90;;;;;;5077597;28;20225;-70
2021/09/07 02:34:36;;;;;;;4.07;3.38;;;18.70;99.90;;;;;;5079637;28;20221;-70
2021/09/07 02:37:04;;;;;;;3.80;3.50;;;18.70;99.90;;;;;;5072419;28;20221;-70
2021/09/07 02:39:31;;;;;;;3.40;3.10;;;18.70;99.90;;;;;;5082768;28;20294;-70
2021/09/07 02:41:58;;;;;;;3.35;3.05;;;18.70;99.90;;;;;;5084131;28;20286;-71
2021/09/07 02:44:25;;;;;;;4.00;3.65;;;18.70;99.90;;;;;;5074085;28;20564;-70
2021/09/07 02:46:53;;;;;;;4.13;3.75;;;18.70;99.90;;;;;;5065402;28;20223;-70
2021/09/07 02:49:20;;;;;;;3.83;3.53;;;18.70;99.90;;;;;;5079017;28;20225;-70
2021/09/07 02:51:48;;;;;;;3.55;3.25;;;18.70;99.90;;;;;;5070406;28;20279;-72
2021/09/07 02:54:16;;;;;;;3.83;3.53;;;18.70;99.90;;;;;;5074713;28;20289;-70
2021/09/07 02:56:43;;;;;;;3.45;3.15;;;18.70;99.90;;;;;;5075626;28;20213;-70
2021/09/07 02:59:10;;;;;;;3.85;3.53;;;18.70;99.90;;;;;;5075041;28;20225;-70
2021/09/07 03:01:37;;;;;;;3.97;3.67;;;18.70;99.90;;;;;;5072181;28;20229;-70
2021/09/07 03:04:04;;;;;;;3.88;3.58;;;18.70;99.90;;;;;;5076980;28;20221;-70
2021/09/07 03:06:32;;;;;;;4.38;4.07;;;18.70;99.90;;;;;;5074169;28;20394;-71
2021/09/07 03:09:00;;;;;;;4.22;3.83;;;18.70;99.90;;;;;;5075217;28;20228;-71
2021/09/07 03:11:27;;;;;;;3.63;3.30;;;18.70;99.90;;;;;;5075415;28;20702;-70
2021/09/07 03:13:54;;;;;;;3.53;3.22;;;18.70;99.90;;;;;;5076415;28;20226;-71
2021/09/07 03:16:21;;;;;;;3.97;3.67;;;18.70;99.90;;;;;;5075638;28;20697;-71
2021/09/07 03:18:48;;;;;;;3.85;3.55;;;18.60;99.90;;;;;;5078002;28;20230;-70
2021/09/07 03:21:15;;;;;;;3.67;3.38;;;18.60;99.90;;;;;;5071134;28;20282;-70
2021/09/07 03:23:42;;;;;;;3.83;3.53;;;18.60;99.90;;;;;;5075868;28;20225;-70
2021/09/07 03:26:12;;;;;;;3.50;3.20;;;18.60;99.90;;;;;;5090630;28;20237;-71
2021/09/07 03:28:39;;;;;;;3.33;3.03;;;18.60;99.90;;;;;;5079430;28;22495;-70
2021/09/07 03:31:06;;;;;;;3.97;3.58;;;18.50;99.90;;;;;;5077730;28;20412;-70
2021/09/07 03:33:33;;;;;;;4.00;3.60;;;18.60;99.90;;;;;;5079029;28;20686;-70
2021/09/07 03:36:00;;;;;;;3.60;3.30;;;18.50;99.90;;;;;;5075649;28;20748;-71
2021/09/07 03:38:27;;;;;;;3.72;3.42;;;18.50;99.90;;;;;;5080529;28;20273;-70
2021/09/07 03:40:54;;;;;;;4.00;3.70;;;18.50;99.90;;;;;;5069229;28;20230;-71
2021/09/07 03:43:23;;;;;;;3.80;3.40;;;18.50;99.90;;;;;;5078221;28;20263;-70
2021/09/07 03:45:50;;;;;;;4.00;3.22;;;18.50;99.90;;;;;;5075536;28;20225;-71
2021/09/07 03:48:17;;;;;;;3.70;3.40;;;18.50;99.90;;;;;;5070152;28;20314;-70
2021/09/07 03:50:44;;;;;;;3.95;3.65;;;18.50;99.90;;;;;;5079209;28;20703;-71
2021/09/07 03:53:11;;;;;;;3.75;3.45;;;18.40;99.90;;;;;;5077168;28;20229;-71
2021/09/07 03:55:38;;;;;;;3.58;3.28;;;18.50;99.90;;;;;;5069536;28;20221;-70
2021/09/07 03:58:05;;;;;;;3.70;3.40;;;18.40;99.90;;;;;;5071912;28;21049;-70
2021/09/07 04:00:34;;;;;;;3.60;3.30;;;18.50;99.90;;;;;;5077226;28;20754;-71
2021/09/07 04:03:01;;;;;;;3.70;3.40;;;18.50;99.90;;;;;;5076226;28;20290;-70
2021/09/07 04:05:28;;;;;;;4.03;3.72;;;18.40;99.90;;;;;;5078862;28;20278;-70
2021/09/07 04:07:56;;;;;;;3.47;3.17;;;18.40;99.90;;;;;;5070247;28;20711;-71
2021/09/07 04:10:24;;;;;;;3.90;3.60;;;18.40;99.90;;;;;;5080503;28;20230;-71
2021/09/07 04:12:51;;;;;;;3.47;3.20;;;18.40;99.90;;;;;;5085395;28;20263;-70
2021/09/07 04:15:18;;;;;;;3.85;3.55;;;18.40;99.90;;;;;;5076704;28;20715;-70
2021/09/07 04:17:46;;;;;;;4.18;3.60;;;18.40;99.90;;;;;;5075966;28;20218;-70
2021/09/07 04:20:14;;;;;;;4.40;3.75;;;18.40;99.90;;;;;;5068648;28;20619;-70
2021/09/07 04:22:41;;;;;;;4.57;3.55;;;18.30;99.90;;;;;;5071897;28;20221;-71
2021/09/07 04:25:10;;;;;;;3.58;3.28;;;18.30;99.90;;;;;;5073462;28;20229;-71
2021/09/07 04:27:37;;;;;;;3.92;3.60;;;18.40;99.90;;;;;;5076767;28;20233;-70
2021/09/07 04:30:05;;;;;;;3.40;3.10;;;18.30;99.90;;;;;;5074557;28;20217;-71
2021/09/07 04:32:32;;;;;;;3.75;3.35;;;18.30;99.90;;;;;;5079542;28;20275;-70
2021/09/07 04:35:00;;;;;;;3.60;3.30;;;18.30;99.90;;;;;;5067042;28;20232;-70
2021/09/07 04:37:27;;;;;;;5.07;3.67;;;18.30;99.90;;;;;;5080914;28;20596;-70
2021/09/07 04:39:54;;;;;;;3.58;3.28;;;18.30;99.90;;;;;;5075850;28;20230;-70
2021/09/07 04:42:21;;;;;;;3.88;3.35;;;18.30;99.90;;;;;;5075337;28;20723;-70
2021/09/07 04:44:49;;;;;;;3.88;3.22;;;18.20;99.90;;;;;;5074527;28;20275;-70
2021/09/07 04:47:16;;;;;;;3.85;3.45;;;18.20;99.90;;;;;;5070201;28;20706;-70
2021/09/07 04:49:43;;;;;;;3.50;3.20;;;18.10;99.90;;;;;;5072612;28;20687;-71
2021/09/07 04:52:11;;;;;;;4.13;3.72;;;18.10;99.90;;;;;;5074966;28;20298;-70
2021/09/07 04:54:38;;;;;;;3.60;3.30;;;18.10;99.90;;;;;;5071563;28;20270;-70
2021/09/07 04:57:05;;;;;;;3.75;3.45;;;18.10;99.90;;;;;;5095481;28;20233;-71
2021/09/07 04:59:32;;;;;;;4.03;3.25;;;18.10;99.90;;;;;;5091408;28;20771;-70
2021/09/07 05:01:59;;;;;;;4.00;3.60;;;18.10;99.90;;;;;;5079441;28;20226;-71
2021/09/07 05:04:26;;;;;;;4.20;3.55;;;18.20;99.90;;;;;;5091164;28;20521;-71
2021/09/07 05:06:53;;;;;;;3.63;3.33;;;18.20;99.90;;;;;;5095246;28;20298;-71
2021/09/07 05:09:22;;;;;;;4.28;3.88;;;18.30;99.90;;;;;;5088445;28;20251;-73
2021/09/07 05:11:49;;;;;;;4.03;3.67;;;18.30;99.90;;;;;;5093871;28;20225;-71
2021/09/07 05:14:16;;;;;;;7.32;3.83;;;18.40;99.90;;;;;;5088449;28;20209;-70
2021/09/07 05:16:43;;;;;;;4.75;3.80;;;18.40;99.90;;;;;;5081469;28;20312;-71
2021/09/07 05:19:10;;;;;;;4.78;4.03;;;18.50;99.90;;;;;;5082781;28;20287;-70
2021/09/07 05:21:37;;;;;;;3.80;3.50;;;18.50;99.90;;;;;;5083230;28;20276;-71
2021/09/07 05:24:04;;;;;;;6.47;4.05;;;18.40;99.90;;;;;;5073001;28;20228;-70
2021/09/07 05:26:33;;;;;;;4.55;3.92;;;18.40;99.90;;;;;;5082408;28;20221;-71
2021/09/07 05:29:00;;;;;;;4.93;4.07;;;18.50;99.90;;;;;;5073635;28;20278;-70
2021/09/07 05:31:27;;;;;;;4.60;4.20;;;18.50;99.90;;;;;;5079502;28;20217;-72
2021/09/07 05:33:54;;;;;;;4.50;4.10;;;18.50;99.90;;;;;;5081312;28;20282;-70
2021/09/07 05:36:21;;;;;;;4.97;4.35;;;18.50;99.90;;;;;;5081135;28;20221;-70
2021/09/07 05:38:48;;;;;;;4.57;4.18;;;18.60;99.90;;;;;;5083318;28;20698;-70
2021/09/07 05:41:15;;;;;;;4.38;3.97;;;18.60;99.90;;;;;;5090036;28;20239;-71
2021/09/07 05:43:43;;;;;;;4.65;4.20;;;18.60;99.90;;;;;;5087505;28;20229;-70
2021/09/07 05:46:11;;;;;;;4.20;3.80;;;18.60;99.90;;;;;;5081304;28;20217;-71
2021/09/07 05:48:38;;;;;;;4.43;4.05;;;18.60;99.90;;;;;;5081433;28;20233;-70
2021/09/07 05:51:05;;;;;;;5.50;4.18;;;18.70;99.90;;;;;;5080224;28;20233;-70
2021/09/07 05:53:32;;;;;;;4.30;4.00;;;18.80;99.90;;;;;;5082262;28;20695;-71
2021/09/07 05:55:59;;;;;;;4.07;3.67;;;18.80;99.90;;;;;;5077181;28;20228;-71
2021/09/07 05:58:26;;;;;;;3.83;3.53;;;18.90;99.90;;;;;;5069217;28;20234;-70
2021/09/07 06:00:55;;;;;;;4.32;3.78;;;18.90;99.90;;;;;;5068276;28;20226;-71
2021/09/07 06:03:22;;;;;;;4.35;3.92;;;19.00;99.90;;;;;;5082270;28;20221;-70
2021/09/07 06:05:49;;;;;;;4.93;3.90;;;19.00;99.90;;;;;;5072819;28;20222;-70
2021/09/07 06:08:16;;;;;;;7.15;3.92;;;19.20;99.90;;;;;;5078435;28;20232;-70
2021/09/07 06:10:43;;;;;;;6.60;4.25;;;19.40;99.90;;;;;;5069286;28;20229;-70
2021/09/07 06:13:10;;;;;;;3.92;3.55;;;19.50;99.90;;;;;;5076895;28;20226;-69
2021/09/07 06:15:39;;;;;;;4.43;4.03;;;19.80;99.90;;;;;;5079834;28;20615;-69
2021/09/07 06:18:07;;;;;;;5.38;4.32;;;20.10;99.90;;;;;;5080808;28;20719;-69
2021/09/07 06:20:34;;;;;;;4.35;3.95;;;20.40;99.90;;;;;;5079512;28;20225;-69
2021/09/07 06:23:01;;;;;;;4.93;3.90;;;20.60;99.90;;;;;;5081610;28;20645;-70
2021/09/07 06:25:29;;;;;;;4.88;4.32;;;20.60;99.90;;;;;;5078312;28;20221;-69
2021/09/07 06:27:56;;;;;;;4.75;4.35;;;20.40;99.90;;;;;;5082544;28;20588;-69
2021/09/07 06:30:23;;;;;;;4.80;4.15;;;20.20;99.90;;;;;;5077934;28;20236;-71
2021/09/07 06:32:50;;;;;;;4.65;4.20;;;20.10;99.90;;;;;;5073612;28;20226;-72
2021/09/07 06:35:18;;;;;;;4.50;4.10;;;20.10;99.90;;;;;;5072213;28;20217;-71
2021/09/07 06:37:46;;;;;;;5.35;4.53;;;20.20;99.90;;;;;;5074415;28;20224;-70
2021/09/07 06:40:14;;;;;;;4.80;4.30;;;20.20;99.90;;;;;;5074818;28;20613;-71
2021/09/07 06:42:41;;;;;;;6.55;4.35;;;20.30;99.90;;;;;;5075847;28;20221;-74
2021/09/07 06:45:09;;;;;;;4.93;4.25;;;20.30;99.90;;;;;;5070554;28;20222;-71
2021/09/07 06:47:36;;;;;;;5.47;4.10;;;20.30;99.90;;;;;;5071158;28;20226;-71
2021/09/07 06:50:03;;;;;;;4.68;4.07;;;20.20;99.90;;;;;;5077863;28;20225;-72
2021/09/07 06:52:32;;;;;;;4.65;4.25;;;20.10;99.90;;;;;;5075707;28;20217;-71
2021/09/07 06:55:00;;;;;;;5.32;4.82;;;20.10;99.90;;;;;;5072688;28;20654;-70
2021/09/07 06:57:27;;;;;;;4.78;4.35;;;20.20;99.90;;;;;;5072097;28;21098;-70
2021/09/07 06:59:56;;;;;;;4.60;4.20;;;20.40;99.90;;;;;;5072372;28;20687;-70
2021/09/07 07:02:23;;;;;;;5.00;3.95;;;20.70;99.90;;;;;;5067923;28;20641;-70
2021/09/07 07:04:50;;;;;;;5.40;4.90;;;21.00;99.90;;;;;;5071620;28;20233;-71
2021/09/07 07:07:17;;;;;;;4.95;4.35;;;20.90;99.90;;;;;;5070512;28;20217;-71
2021/09/07 07:09:46;;;;;;;5.75;4.80;;;20.90;99.90;;;;;;5071264;28;20221;-71
2021/09/07 07:12:13;;;;;;;5.07;4.57;;;20.90;99.90;;;;;;5067688;28;20233;-70
2021/09/07 07:14:40;;;;;;;5.15;4.65;;;21.00;99.90;;;;;;5071458;28;20225;-70
2021/09/07 07:17:07;;;;;;;5.40;4.88;;;21.10;99.90;;;;;;5069213;28;20654;-70
2021/09/07 07:19:34;;;;;;;4.85;4.45;;;21.20;99.90;;;;;;5071466;28;20217;-70
2021/09/07 07:22:01;;;;;;;6.45;5.40;;;21.20;99.90;;;;;;5071760;28;20297;-71
2021/09/07 07:24:28;;;;;;;5.47;4.95;;;21.50;99.90;;;;;;5074294;28;20225;-70
2021/09/07 07:26:56;;;;;;;13.35;4.70;;;21.70;99.90;;;;;;5068209;28;20229;-70
2021/09/07 07:29:23;;;;;;;5.75;5.15;;;22.00;99.90;;;;;;5067928;28;20237;-70
2021/09/07 07:31:51;;;;;;;5.03;4.53;;;22.10;99.90;;;;;;5063005;28;22254;-70
2021/09/07 07:34:18;;;;;;;5.38;4.88;;;22.20;99.90;;;;;;5069480;28;20298;-71
2021/09/07 07:36:45;;;;;;;5.22;4.72;;;22.40;99.90;;;;;;5067379;28;20224;-70
2021/09/07 07:39:12;;;;;;;5.82;5.22;;;22.50;99.90;;;;;;5067306;28;20229;-71
2021/09/07 07:41:39;;;;;;;5.68;4.97;;;22.50;99.90;;;;;;5065835;28;20302;-70
2021/09/07 07:44:08;;;;;;;6.55;4.75;;;22.60;99.90;;;;;;5067078;28;20636;-70
2021/09/07 07:46:35;;;;;;;6.25;5.65;;;22.50;99.90;;;;;;5069329;28;20225;-69
2021/09/07 07:49:03;;;;;;;5.25;4.82;;;22.60;99.90;;;;;;5060231;28;20225;-72
2021/09/07 07:51:30;;;;;;;6.57;5.05;;;22.80;99.90;;;;;;5069434;28;20244;-71
2021/09/07 07:53:57;;;;;;;5.30;4.80;;;23.00;99.90;;;;;;5068573;28;20225;-70
2021/09/07 07:56:24;;;;;;;5.28;4.78;;;22.90;99.90;;;;;;5064592;28;20243;-70
2021/09/07 07:58:52;;;;;;;6.38;4.65;;;23.00;99.90;;;;;;5071938;28;20236;-70
2021/09/07 08:01:20;;;;;;;5.60;4.70;;;23.00;99.90;;;;;;5069545;28;20213;-70
2021/09/07 08:03:47;;;;;;;5.20;4.70;;;23.00;99.90;;;;;;5069058;28;20359;-71
2021/09/07 08:06:14;;;;;;;5.75;4.93;;;23.00;99.90;;;;;;5066680;28;20225;-72
2021/09/07 08:08:41;;;;;;;5.75;4.78;;;23.00;99.90;;;;;;5066387;28;20763;-70
2021/09/07 08:11:08;;;;;;;6.05;4.68;;;23.10;99.90;;;;;;5068366;28;20233;-70
2021/09/07 08:13:36;;;;;;;6.05;5.20;;;23.30;99.90;;;;;;5070335;28;20238;-70
2021/09/07 08:16:03;;;;;;;5.28;4.72;;;23.50;99.90;;;;;;5068369;28;20205;-71
2021/09/07 08:18:32;;;;;;;5.47;4.65;;;23.80;99.90;;;;;;5065418;28;20224;-71
2021/09/07 08:21:00;;;;;;;5.95;5.15;;;24.00;99.90;;;;;;5064986;28;20229;-71
2021/09/07 08:23:27;;;;;;;6.20;5.60;;;23.80;99.90;;;;;;5063871;28;20225;-71
2021/09/07 08:25:55;;;;;;;6.25;5.07;;;23.80;99.90;;;;;;5062873;28;20248;-70
2021/09/07 08:28:22;;;;;;;7.47;4.80;;;23.90;99.90;;;;;;5066740;28;20233;-70
2021/09/07 08:30:49;;;;;;;6.90;5.18;;;24.10;99.90;;;;;;5063396;28;20228;-70
2021/09/07 08:33:18;;;;;;;5.43;4.93;;;24.40;99.90;;;;;;5073229;28;20217;-71
2021/09/07 08:35:47;;;;;;;5.38;4.65;;;24.40;99.90;;;;;;5069899;28;20221;-70
2021/09/07 08:38:14;;;;;;;8.20;5.40;;;24.50;99.90;;;;;;5069498;28;20217;-71
2021/09/07 08:40:42;;;;;;;5.65;5.00;;;24.40;99.90;;;;;;5070554;28;20279;-72
2021/09/07 08:43:09;;;;;;;6.03;5.35;;;24.40;99.90;;;;;;5073846;28;20217;-69
2021/09/07 08:45:38;;;;;;;5.80;5.20;;;24.40;99.90;;;;;;5070141;28;20295;-71
2021/09/07 08:48:06;;;;;;;5.30;4.70;;;24.60;99.90;;;;;;5069569;28;20931;-71
2021/09/07 08:50:33;;;;;;;5.80;5.05;;;24.60;99.90;;;;;;5070534;28;20237;-71
2021/09/07 08:53:02;;;;;;;7.20;4.65;;;24.80;99.90;;;;;;5061682;28;20209;-71
2021/09/07 08:55:30;;;;;;;4.95;4.45;;;25.20;99.90;;;;;;5073891;28;20801;-71
2021/09/07 08:57:57;;;;;;;5.15;4.65;;;25.20;99.90;;;;;;5061729;28;20232;-71
2021/09/07 09:00:26;;;;;;;5.43;4.93;;;25.10;99.90;;;;;;5073690;28;20299;-71
2021/09/07 09:02:54;;;;;;;5.03;4.50;;;25.10;99.90;;;;;;5071080;28;20228;-71
2021/09/07 09:05:31;;;;;;;5.30;4.80;;;24.90;99.90;;;;;;5074017;28;20250;-71
2021/09/07 09:07:59;;;;;;;4.88;4.38;;;24.70;99.90;;;;;;5072561;28;20221;-71
2021/09/07 09:10:28;;;;;;;5.38;4.90;;;24.60;99.90;;;;;;5069261;28;20229;-71
2021/09/07 09:13:06;;;;;;;5.68;4.60;;;24.40;99.90;;;;;;5067848;28;20595;-71
2021/09/07 09:15:34;;;;;;;5.50;5.00;;;24.50;99.90;;;;;;5064623;28;20221;-70
2021/09/07 09:18:09;;;;;;;5.50;5.00;;;24.50;99.90;;;;;;5072608;28;20225;-72
2021/09/07 09:20:37;;;;;;;5.40;5.00;;;24.80;99.90;;;;;;5069069;28;20232;-71
2021/09/07 09:23:06;;;;;;;4.70;4.10;;;24.80;99.90;;;;;;5072354;28;20228;-73
2021/09/07 09:25:38;;;;;;;7.53;5.03;;;24.90;99.90;;;;;;5071357;28;20217;-70
2021/09/07 09:28:13;;;;;;;5.78;5.15;;;25.00;99.90;;;;;;5060086;28;20228;-72
2021/09/07 09:30:42;;;;;;;5.45;4.95;;;25.40;99.90;;;;;;5071077;28;20661;-71
2021/09/07 09:33:12;;;;;;;5.18;4.68;;;25.70;99.90;;;;;;5074428;28;20213;-71
2021/09/07 09:35:50;;;;;;;5.25;4.72;;;25.60;99.90;;;;;;5072266;28;20222;-71
2021/09/07 09:38:18;;;;;;;7.03;4.63;;;25.50;99.90;;;;;;5066421;28;20241;-75
2021/09/07 09:40:53;;;;;;;4.85;4.35;;;25.80;99.90;;;;;;5068719;28;20217;-74
2021/09/07 09:43:30;;;;;;;5.55;4.90;;;26.00;99.90;;;;;;5072162;28;20308;-72
2021/09/07 09:45:57;;;;;;;5.07;4.68;;;25.80;99.90;;;;;;5069959;28;20229;-71
2021/09/07 09:48:29;;;;;;;5.85;4.82;;;25.50;99.90;;;;;;5068398;28;20236;-73
2021/09/07 09:50:58;;;;;;;4.93;4.53;;;25.50;99.90;;;;;;5071844;28;20233;-73
2021/09/07 09:53:27;;;;;;;5.72;4.47;;;25.50;99.90;;;;;;5065255;28;20225;-72
2021/09/07 09:55:56;;;;;;;8.88;5.05;;;25.30;99.90;;;;;;5069645;28;20229;-73
2021/09/07 09:58:26;;;;;;;7.22;5.20;;;25.20;99.90;;;;;;5063828;28;20226;-71
2021/09/07 10:00:54;;;;;;;4.05;3.67;;;25.20;99.90;;;;;;5073989;28;20749;-73
2021/09/07 10:03:22;;;;;;;5.05;4.63;;;25.40;99.90;;;;;;5071378;28;20226;-72
2021/09/07 10:05:49;;;;;;;6.47;4.40;;;25.50;99.90;;;;;;5073252;28;20294;-72
2021/09/07 10:08:18;;;;;;;5.05;4.45;;;25.90;99.90;;;;;;5070316;28;20231;-72
2021/09/07 10:10:53;;;;;;;4.50;4.10;;;26.20;99.90;;;;;;5074466;28;20217;-73
2021/09/07 10:13:25;;;;;;;5.00;4.60;;;26.30;99.90;;;;;;5075265;28;20224;-72
2021/09/07 10:15:57;;;;;;;5.13;4.30;;;26.40;99.90;;;;;;5074827;28;20240;-72
2021/09/07 10:18:43;;;;;;;4.55;4.15;;;26.40;99.90;;;;;;5071507;28;20636;-72
2021/09/07 10:21:19;;;;;;;5.32;4.82;;;26.60;99.90;;;;;;5070228;28;20240;-72
2021/09/07 10:23:58;;;;;;;5.28;4.82;;;26.80;99.90;;;;;;5075098;28;20262;-73
2021/09/07 10:26:55;;;;;;;5.10;4.70;;;26.70;99.90;;;;;;5068832;28;20214;-72
2021/09/07 10:29:45;;;;;;;4.65;4.13;;;26.30;99.90;;;;;;5066887;28;20274;-73
2021/09/07 10:32:24;;;;;;;4.80;4.40;;;26.10;99.90;;;;;;5072060;28;20316;-72
2021/09/07 10:35:15;;;;;;;4.30;3.90;;;26.10;99.90;;;;;;5069325;28;20217;-73
2021/09/07 10:38:11;;;;;;;4.80;4.40;;;25.80;99.90;;;;;;5065655;28;20214;-71
2021/09/07 10:40:55;;;;;;;5.25;4.80;;;25.50;99.90;;;;;;5013135;28;20287;-71
2021/09/07 10:43:51;;;;;;;5.03;4.35;;;25.10;99.90;;;;;;5073503;28;20701;-72
2021/09/07 10:46:41;;;;;;;4.32;4.00;;;24.90;99.90;;;;;;5071950;28;20300;-72
2021/09/07 10:49:24;;;;;;;5.38;3.95;;;25.00;99.90;;;;;;5065990;28;20233;-72
2021/09/07 10:52:32;;;;;;;4.47;4.07;;;24.90;99.90;;;;;;5069493;28;20727;-70
2021/09/07 10:55:16;;;;;;;4.30;3.90;;;25.10;99.90;;;;;;5072640;28;20228;-73
2021/09/07 10:57:56;;;;;;;5.03;4.55;;;25.30;99.90;;;;;;5069598;28;20217;-73
2021/09/07 11:00:40;;;;;;;4.82;4.10;;;25.30;99.90;;;;;;5067558;28;20237;-71
2021/09/07 11:03:10;;;;;;;4.65;4.25;;;25.20;99.90;;;;;;5065126;28;20244;-72
2021/09/07 11:05:42;;;;;;;4.57;4.18;;;25.30;99.90;;;;;;5066132;28;20220;-72
2021/09/07 11:08:10;;;;;;;4.75;4.22;;;25.30;99.90;;;;;;5068623;28;20294;-72
2021/09/07 11:10:39;;;;;;;4.75;4.25;;;25.50;99.90;;;;;;5072921;28;20340;-71
2021/09/07 11:13:08;;;;;;;3.97;3.67;;;25.50;99.90;;;;;;5070269;28;20688;-72
2021/09/07 11:15:38;;;;;;;4.80;4.40;;;25.40;99.90;;;;;;5072045;28;20727;-71
2021/09/07 11:18:06;;;;;;;4.75;4.18;;;25.50;99.90;;;;;;5060424;28;20225;-72
2021/09/07 11:20:38;;;;;;;4.65;4.25;;;25.50;99.90;;;;;;5061960;28;20230;-72
2021/09/07 11:23:13;;;;;;;4.85;4.13;;;25.60;99.90;;;;;;5061560;28;20237;-72
2021/09/07 11:25:42;;;;;;;3.92;3.63;;;25.70;99.90;;;;;;5068195;28;20334;-72
2021/09/07 11:28:12;;;;;;;4.32;3.92;;;25.70;99.90;;;;;;5070724;28;20220;-71
2021/09/07 11:30:41;;;;;;;5.50;4.85;;;25.50;99.90;;;;;;5064091;28;20228;-72
2021/09/07 11:33:10;;;;;;;5.32;4.82;;;25.60;99.90;;;;;;5068301;28;20257;-72
2021/09/07 11:35:44;;;;;;;5.28;4.78;;;25.40;99.90;;;;;;5070170;28;20228;-72
2021/09/07 11:38:13;;;;;;;4.65;4.22;;;25.20;99.90;;;;;;5066730;28;21032;-71
2021/09/07 11:40:46;;;;;;;4.50;4.10;;;25.20;99.90;;;;;;5071705;28;20236;-71
2021/09/07 11:43:14;;;;;;;4.93;4.53;;;25.50;99.90;;;;;;5063220;28;20303;-72
2021/09/07 11:45:41;;;;;;;4.90;4.50;;;26.00;99.90;;;;;;5066778;28;20221;-72
2021/09/07 11:48:10;;;;;;;5.05;4.63;;;26.10;99.90;;;;;;5065435;28;20221;-72
2021/09/07 11:50:39;;;;;;;5.65;5.15;;;26.20;99.90;;;;;;5065202;28;20316;-72
2021/09/07 11:53:10;;;;;;;5.32;4.82;;;26.30;99.90;;;;;;5068974;28;20217;-73
2021/09/07 11:55:39;;;;;;;4.82;4.43;;;26.30;99.90;;;;;;5067205;28;20847;-73
2021/09/07 11:58:07;;;;;;;4.60;4.20;;;26.30;99.90;;;;;;5066414;28;20229;-73
2021/09/07 12:00:35;;;;;;;4.53;4.13;;;26.50;99.90;;;;;;5064969;28;20969;-73
2021/09/07 12:03:13;;;;;;;4.78;4.32;;;26.60;99.90;;;;;;5068254;28;20311;-74
2021/09/07 12:05:57;;;;;;;5.90;5.07;;;26.70;99.90;;;;;;5074021;28;20228;-73
2021/09/07 12:08:38;;;;;;;5.63;5.13;;;26.80;99.90;;;;;;5071773;28;20232;-72
2021/09/07 12:11:06;;;;;;;4.82;4.43;;;26.50;99.90;;;;;;5064297;28;20225;-72
2021/09/07 12:13:34;;;;;;;4.60;4.20;;;26.70;99.90;;;;;;5070887;28;20220;-73
2021/09/07 12:16:02;;;;;;;5.03;4.60;;;27.00;99.90;;;;;;5072450;28;20282;-72
2021/09/07 12:18:31;;;;;;;5.43;4.93;;;27.20;99.90;;;;;;5068523;28;20216;-73
2021/09/07 12:21:16;;;;;;;6.30;4.15;;;27.30;99.90;;;;;;5065883;28;20232;-72
2021/09/07 12:23:47;;;;;;;5.20;4.70;;;27.10;99.90;;;;;;5072578;28;20217;-72
2021/09/07 12:26:15;;;;;;;4.95;4.45;;;27.30;99.90;;;;;;5068772;28;20251;-72
2021/09/07 12:28:43;;;;;;;5.97;4.60;;;27.50;99.90;;;;;;5068978;28;20228;-73
2021/09/07 12:31:15;;;;;;;4.97;4.57;;;27.40;99.90;;;;;;5071419;28;20252;-72
2021/09/07 12:33:47;;;;;;;8.63;4.60;;;27.30;99.90;;;;;;5071291;28;20225;-72
2021/09/07 12:36:15;;;;;;;6.45;5.18;;;27.10;99.90;;;;;;5071772;28;20639;-72
2021/09/07 12:38:42;;;;;;;7.82;4.63;;;27.00;99.90;;;;;;5073083;28;20236;-72
2021/09/07 12:41:12;;;;;;;8.57;4.88;;;26.90;99.90;;;;;;5055765;28;20231;-72
2021/09/07 12:43:42;;;;;;;4.90;4.40;;;26.90;99.90;;;;;;5069822;28;20229;-71
2021/09/07 12:46:11;;;;;;;5.18;4.68;;;27.20;99.90;;;;;;5070239;28;20257;-72
2021/09/07 12:48:40;;;;;;;11.38;4.60;;;27.30;99.90;;;;;;5072866;28;20225;-72
2021/09/07 12:51:08;;;;;;;6.88;4.55;;;27.50;99.90;;;;;;5070473;28;20245;-74
2021/09/07 12:53:38;;;;;;;5.63;4.03;;;27.60;99.90;;;;;;5074379;28;20229;-71
2021/09/07 12:56:07;;;;;;;5.22;4.60;;;27.80;99.90;;;;;;5069037;28;20336;-72
2021/09/07 12:58:38;;;;;;;5.10;4.32;;;27.80;99.90;;;;;;5071641;28;20225;-73